sensor_id;sensor_type;location;lat;lon;timestamp;P1;durP1;ratioP1;P2;durP2;ratioP2
25153;SDS011;47555;51.038;6.280;2023-03-01T00:01:55;11.98;;;7.68;;
25153;SDS011;47555;51.038;6.280;2023-03-01T00:04:20;24.95;;;10.93;;
25153;SDS011;47555;51.038;6.280;2023-03-01T00:06:46;18.48;;;10.10;;
25153;SDS011;47555;51.038;6.280;2023-03-01T00:09:13;17.77;;;10.20;;
25153;SDS011;47555;51.038;6.280;2023-03-01T00:11:39;17.73;;;9.20;;
25153;SDS011;47555;51.038;6.280;2023-03-01T00:14:04;17.73;;;9.23;;
25153;SDS011;47555;51.038;6.280;2023-03-01T00:16:32;18.73;;;8.45;;
25153;SDS011;47555;51.038;6.280;2023-03-01T00:19:06;17.63;;;7.97;;
25153;SDS011;47555;51.038;6.280;2023-03-01T00:21:34;11.30;;;8.35;;
25153;SDS011;47555;51.038;6.280;2023-03-01T00:24:00;14.52;;;8.02;;
25153;SDS011;47555;51.038;6.280;2023-03-01T00:26:26;14.52;;;8.80;;
25153;SDS011;47555;51.038;6.280;2023-03-01T00:28:53;14.15;;;9.02;;
25153;SDS011;47555;51.038;6.280;2023-03-01T00:31:24;14.73;;;8.45;;
25153;SDS011;47555;51.038;6.280;2023-03-01T00:33:58;14.75;;;8.15;;
25153;SDS011;47555;51.038;6.280;2023-03-01T00:36:26;11.75;;;7.60;;
25153;SDS011;47555;51.038;6.280;2023-03-01T00:38:57;12.75;;;7.82;;
25153;SDS011;47555;51.038;6.280;2023-03-01T00:41:23;12.68;;;7.72;;
25153;SDS011;47555;51.038;6.280;2023-03-01T00:43:49;13.02;;;8.35;;
25153;SDS011;47555;51.038;6.280;2023-03-01T00:46:16;12.10;;;7.28;;
25153;SDS011;47555;51.038;6.280;2023-03-01T00:48:44;12.48;;;8.63;;
25153;SDS011;47555;51.038;6.280;2023-03-01T00:51:17;10.93;;;7.88;;
25153;SDS011;47555;51.038;6.280;2023-03-01T00:53:43;15.25;;;8.10;;
25153;SDS011;47555;51.038;6.280;2023-03-01T00:56:09;11.35;;;7.47;;
25153;SDS011;47555;51.038;6.280;2023-03-01T00:58:36;12.70;;;8.20;;
25153;SDS011;47555;51.038;6.280;2023-03-01T01:01:12;10.55;;;7.82;;
25153;SDS011;47555;51.038;6.280;2023-03-01T01:03:46;13.65;;;8.90;;
25153;SDS011;47555;51.038;6.280;2023-03-01T01:06:18;12.52;;;8.65;;
25153;SDS011;47555;51.038;6.280;2023-03-01T01:08:46;12.93;;;8.13;;
25153;SDS011;47555;51.038;6.280;2023-03-01T01:11:13;15.27;;;7.95;;
25153;SDS011;47555;51.038;6.280;2023-03-01T01:13:39;12.45;;;8.32;;
25153;SDS011;47555;51.038;6.280;2023-03-01T01:16:05;11.35;;;7.70;;
25153;SDS011;47555;51.038;6.280;2023-03-01T01:18:31;11.07;;;7.78;;
25153;SDS011;47555;51.038;6.280;2023-03-01T01:20:57;15.98;;;8.35;;
25153;SDS011;47555;51.038;6.280;2023-03-01T01:23:22;13.07;;;8.02;;
25153;SDS011;47555;51.038;6.280;2023-03-01T01:25:48;11.73;;;8.32;;
25153;SDS011;47555;51.038;6.280;2023-03-01T01:28:14;13.98;;;8.65;;
25153;SDS011;47555;51.038;6.280;2023-03-01T01:30:39;12.18;;;7.72;;
25153;SDS011;47555;51.038;6.280;2023-03-01T01:33:05;13.30;;;8.00;;
25153;SDS011;47555;51.038;6.280;2023-03-01T01:35:30;14.02;;;7.82;;
25153;SDS011;47555;51.038;6.280;2023-03-01T01:37:56;13.02;;;7.88;;
25153;SDS011;47555;51.038;6.280;2023-03-01T01:40:21;17.40;;;8.93;;
25153;SDS011;47555;51.038;6.280;2023-03-01T01:42:49;13.50;;;8.52;;
25153;SDS011;47555;51.038;6.280;2023-03-01T01:45:28;10.57;;;8.35;;
25153;SDS011;47555;51.038;6.280;2023-03-01T01:48:02;11.52;;;8.43;;
25153;SDS011;47555;51.038;6.280;2023-03-01T01:50:39;14.68;;;8.18;;
25153;SDS011;47555;51.038;6.280;2023-03-01T01:53:10;12.70;;;7.80;;
25153;SDS011;47555;51.038;6.280;2023-03-01T01:55:43;14.68;;;8.45;;
25153;SDS011;47555;51.038;6.280;2023-03-01T01:58:13;14.07;;;8.45;;
25153;SDS011;47555;51.038;6.280;2023-03-01T02:00:42;15.25;;;7.80;;
25153;SDS011;47555;51.038;6.280;2023-03-01T02:03:10;11.10;;;7.47;;
25153;SDS011;47555;51.038;6.280;2023-03-01T02:08:27;12.30;;;8.23;;
25153;SDS011;47555;51.038;6.280;2023-03-01T02:10:55;14.88;;;8.82;;
25153;SDS011;47555;51.038;6.280;2023-03-01T02:13:22;13.48;;;8.82;;
25153;SDS011;47555;51.038;6.280;2023-03-01T02:15:48;13.35;;;9.10;;
25153;SDS011;47555;51.038;6.280;2023-03-01T02:18:14;12.45;;;8.60;;
25153;SDS011;47555;51.038;6.280;2023-03-01T02:23:23;14.82;;;8.55;;
25153;SDS011;47555;51.038;6.280;2023-03-01T02:28:42;13.63;;;8.93;;
25153;SDS011;47555;51.038;6.280;2023-03-01T02:31:09;14.05;;;8.25;;
25153;SDS011;47555;51.038;6.280;2023-03-01T02:33:56;12.00;;;7.70;;
25153;SDS011;47555;51.038;6.280;2023-03-01T02:36:28;13.48;;;8.65;;
25153;SDS011;47555;51.038;6.280;2023-03-01T02:39:00;14.23;;;8.75;;
25153;SDS011;47555;51.038;6.280;2023-03-01T02:41:28;17.42;;;9.45;;
25153;SDS011;47555;51.038;6.280;2023-03-01T02:43:58;12.13;;;8.30;;
25153;SDS011;47555;51.038;6.280;2023-03-01T02:46:24;12.68;;;8.60;;
25153;SDS011;47555;51.038;6.280;2023-03-01T02:48:52;15.63;;;9.57;;
25153;SDS011;47555;51.038;6.280;2023-03-01T02:56:21;13.88;;;8.52;;
25153;SDS011;47555;51.038;6.280;2023-03-01T02:58:46;14.02;;;8.45;;
25153;SDS011;47555;51.038;6.280;2023-03-01T03:01:16;15.15;;;9.68;;
25153;SDS011;47555;51.038;6.280;2023-03-01T03:03:42;11.27;;;8.48;;
25153;SDS011;47555;51.038;6.280;2023-03-01T03:06:08;13.32;;;9.00;;
25153;SDS011;47555;51.038;6.280;2023-03-01T03:08:34;14.02;;;8.80;;
25153;SDS011;47555;51.038;6.280;2023-03-01T03:11:00;16.23;;;10.30;;
25153;SDS011;47555;51.038;6.280;2023-03-01T03:13:25;13.43;;;8.85;;
25153;SDS011;47555;51.038;6.280;2023-03-01T03:15:54;15.63;;;8.70;;
25153;SDS011;47555;51.038;6.280;2023-03-01T03:18:20;15.65;;;8.63;;
25153;SDS011;47555;51.038;6.280;2023-03-01T03:20:47;16.17;;;9.77;;
25153;SDS011;47555;51.038;6.280;2023-03-01T03:23:17;14.75;;;9.32;;
25153;SDS011;47555;51.038;6.280;2023-03-01T03:25:44;16.02;;;8.63;;
25153;SDS011;47555;51.038;6.280;2023-03-01T03:28:09;15.38;;;8.95;;
25153;SDS011;47555;51.038;6.280;2023-03-01T03:30:35;14.55;;;8.77;;
25153;SDS011;47555;51.038;6.280;2023-03-01T03:33:06;17.40;;;10.00;;
25153;SDS011;47555;51.038;6.280;2023-03-01T03:35:33;13.65;;;9.25;;
25153;SDS011;47555;51.038;6.280;2023-03-01T03:38:05;15.67;;;9.43;;
25153;SDS011;47555;51.038;6.280;2023-03-01T03:40:40;15.68;;;9.63;;
25153;SDS011;47555;51.038;6.280;2023-03-01T03:43:12;15.95;;;9.23;;
25153;SDS011;47555;51.038;6.280;2023-03-01T03:45:40;17.23;;;9.30;;
25153;SDS011;47555;51.038;6.280;2023-03-01T03:48:06;15.90;;;9.38;;
25153;SDS011;47555;51.038;6.280;2023-03-01T03:50:34;14.63;;;9.70;;
25153;SDS011;47555;51.038;6.280;2023-03-01T03:53:00;12.23;;;8.13;;
25153;SDS011;47555;51.038;6.280;2023-03-01T03:55:27;22.88;;;10.05;;
25153;SDS011;47555;51.038;6.280;2023-03-01T03:57:56;16.63;;;10.07;;
25153;SDS011;47555;51.038;6.280;2023-03-01T04:00:23;15.48;;;9.20;;
25153;SDS011;47555;51.038;6.280;2023-03-01T04:02:49;19.17;;;9.43;;
25153;SDS011;47555;51.038;6.280;2023-03-01T04:05:16;17.25;;;10.48;;
25153;SDS011;47555;51.038;6.280;2023-03-01T04:07:43;15.45;;;9.68;;
25153;SDS011;47555;51.038;6.280;2023-03-01T04:10:11;14.90;;;9.55;;
25153;SDS011;47555;51.038;6.280;2023-03-01T04:12:39;16.83;;;10.63;;
25153;SDS011;47555;51.038;6.280;2023-03-01T04:15:05;15.75;;;10.13;;
25153;SDS011;47555;51.038;6.280;2023-03-01T04:17:41;14.98;;;10.07;;
25153;SDS011;47555;51.038;6.280;2023-03-01T04:20:09;16.63;;;9.98;;
25153;SDS011;47555;51.038;6.280;2023-03-01T04:22:36;17.30;;;10.75;;
25153;SDS011;47555;51.038;6.280;2023-03-01T04:25:02;17.77;;;11.15;;
25153;SDS011;47555;51.038;6.280;2023-03-01T04:27:29;18.13;;;10.05;;
25153;SDS011;47555;51.038;6.280;2023-03-01T04:29:55;15.32;;;10.10;;
25153;SDS011;47555;51.038;6.280;2023-03-01T04:32:20;17.30;;;10.93;;
25153;SDS011;47555;51.038;6.280;2023-03-01T04:34:46;21.75;;;11.25;;
25153;SDS011;47555;51.038;6.280;2023-03-01T04:37:11;14.88;;;9.27;;
25153;SDS011;47555;51.038;6.280;2023-03-01T04:39:37;19.13;;;10.63;;
25153;SDS011;47555;51.038;6.280;2023-03-01T04:42:10;14.75;;;9.40;;
25153;SDS011;47555;51.038;6.280;2023-03-01T04:44:36;16.42;;;9.27;;
25153;SDS011;47555;51.038;6.280;2023-03-01T04:47:01;15.40;;;9.57;;
25153;SDS011;47555;51.038;6.280;2023-03-01T04:49:27;17.42;;;9.45;;
25153;SDS011;47555;51.038;6.280;2023-03-01T04:51:53;14.93;;;9.85;;
25153;SDS011;47555;51.038;6.280;2023-03-01T04:54:18;17.63;;;9.90;;
25153;SDS011;47555;51.038;6.280;2023-03-01T04:56:44;14.15;;;9.30;;
25153;SDS011;47555;51.038;6.280;2023-03-01T04:59:09;17.75;;;9.63;;
25153;SDS011;47555;51.038;6.280;2023-03-01T05:01:37;16.95;;;9.90;;
25153;SDS011;47555;51.038;6.280;2023-03-01T05:04:03;16.63;;;10.10;;
25153;SDS011;47555;51.038;6.280;2023-03-01T05:06:30;12.35;;;8.93;;
25153;SDS011;47555;51.038;6.280;2023-03-01T05:08:56;17.17;;;9.73;;
25153;SDS011;47555;51.038;6.280;2023-03-01T05:11:22;15.98;;;9.50;;
25153;SDS011;47555;51.038;6.280;2023-03-01T05:13:48;17.58;;;9.82;;
25153;SDS011;47555;51.038;6.280;2023-03-01T05:16:15;17.88;;;10.43;;
25153;SDS011;47555;51.038;6.280;2023-03-01T05:18:41;17.55;;;9.98;;
25153;SDS011;47555;51.038;6.280;2023-03-01T05:21:09;20.08;;;10.68;;
25153;SDS011;47555;51.038;6.280;2023-03-01T05:23:36;15.60;;;9.95;;
25153;SDS011;47555;51.038;6.280;2023-03-01T05:26:01;15.32;;;10.30;;
25153;SDS011;47555;51.038;6.280;2023-03-01T05:28:28;19.10;;;10.85;;
25153;SDS011;47555;51.038;6.280;2023-03-01T05:30:55;16.17;;;9.40;;
25153;SDS011;47555;51.038;6.280;2023-03-01T05:33:21;17.23;;;9.70;;
25153;SDS011;47555;51.038;6.280;2023-03-01T05:35:47;16.40;;;9.57;;
25153;SDS011;47555;51.038;6.280;2023-03-01T05:38:14;18.52;;;10.90;;
25153;SDS011;47555;51.038;6.280;2023-03-01T05:40:45;14.20;;;9.90;;
25153;SDS011;47555;51.038;6.280;2023-03-01T05:43:12;15.10;;;10.27;;
25153;SDS011;47555;51.038;6.280;2023-03-01T05:45:39;15.95;;;9.55;;
25153;SDS011;47555;51.038;6.280;2023-03-01T05:48:08;18.13;;;9.57;;
25153;SDS011;47555;51.038;6.280;2023-03-01T05:50:35;19.40;;;10.70;;
25153;SDS011;47555;51.038;6.280;2023-03-01T05:53:04;17.45;;;9.45;;
25153;SDS011;47555;51.038;6.280;2023-03-01T05:55:33;18.50;;;10.93;;
25153;SDS011;47555;51.038;6.280;2023-03-01T05:58:00;20.38;;;10.35;;
25153;SDS011;47555;51.038;6.280;2023-03-01T06:00:27;18.15;;;10.50;;
25153;SDS011;47555;51.038;6.280;2023-03-01T06:02:53;13.98;;;10.50;;
25153;SDS011;47555;51.038;6.280;2023-03-01T06:05:19;16.98;;;9.85;;
25153;SDS011;47555;51.038;6.280;2023-03-01T06:07:45;18.63;;;10.38;;
25153;SDS011;47555;51.038;6.280;2023-03-01T06:10:11;15.35;;;10.18;;
25153;SDS011;47555;51.038;6.280;2023-03-01T06:12:38;16.80;;;9.95;;
25153;SDS011;47555;51.038;6.280;2023-03-01T06:15:06;17.27;;;10.68;;
25153;SDS011;47555;51.038;6.280;2023-03-01T06:17:34;20.45;;;11.05;;
25153;SDS011;47555;51.038;6.280;2023-03-01T06:20:03;19.05;;;10.88;;
25153;SDS011;47555;51.038;6.280;2023-03-01T06:22:33;18.40;;;10.57;;
25153;SDS011;47555;51.038;6.280;2023-03-01T06:24:58;17.05;;;10.18;;
25153;SDS011;47555;51.038;6.280;2023-03-01T06:27:24;17.92;;;10.75;;
25153;SDS011;47555;51.038;6.280;2023-03-01T06:29:49;21.75;;;12.10;;
25153;SDS011;47555;51.038;6.280;2023-03-01T06:32:15;18.35;;;10.07;;
25153;SDS011;47555;51.038;6.280;2023-03-01T06:34:41;16.23;;;10.30;;
25153;SDS011;47555;51.038;6.280;2023-03-01T06:37:06;18.48;;;10.57;;
25153;SDS011;47555;51.038;6.280;2023-03-01T06:39:32;20.13;;;10.82;;
25153;SDS011;47555;51.038;6.280;2023-03-01T06:41:58;19.15;;;11.05;;
25153;SDS011;47555;51.038;6.280;2023-03-01T06:44:24;15.65;;;11.02;;
25153;SDS011;47555;51.038;6.280;2023-03-01T06:46:50;18.50;;;10.68;;
25153;SDS011;47555;51.038;6.280;2023-03-01T06:49:15;17.83;;;10.57;;
25153;SDS011;47555;51.038;6.280;2023-03-01T06:51:42;20.10;;;10.63;;
25153;SDS011;47555;51.038;6.280;2023-03-01T06:54:09;16.73;;;10.23;;
25153;SDS011;47555;51.038;6.280;2023-03-01T06:56:35;17.02;;;9.82;;
25153;SDS011;47555;51.038;6.280;2023-03-01T06:59:00;17.83;;;10.25;;
25153;SDS011;47555;51.038;6.280;2023-03-01T07:01:27;19.48;;;11.50;;
25153;SDS011;47555;51.038;6.280;2023-03-01T07:03:53;16.95;;;9.82;;
25153;SDS011;47555;51.038;6.280;2023-03-01T07:06:19;16.75;;;10.38;;
25153;SDS011;47555;51.038;6.280;2023-03-01T07:08:46;17.77;;;10.57;;
25153;SDS011;47555;51.038;6.280;2023-03-01T07:11:12;20.70;;;10.55;;
25153;SDS011;47555;51.038;6.280;2023-03-01T07:13:37;18.05;;;9.98;;
25153;SDS011;47555;51.038;6.280;2023-03-01T07:16:03;20.20;;;11.07;;
25153;SDS011;47555;51.038;6.280;2023-03-01T07:18:29;16.38;;;10.48;;
25153;SDS011;47555;51.038;6.280;2023-03-01T07:20:54;16.00;;;9.73;;
25153;SDS011;47555;51.038;6.280;2023-03-01T07:23:20;15.00;;;10.40;;
25153;SDS011;47555;51.038;6.280;2023-03-01T07:25:51;20.77;;;10.90;;
25153;SDS011;47555;51.038;6.280;2023-03-01T07:28:19;19.60;;;10.23;;
25153;SDS011;47555;51.038;6.280;2023-03-01T07:30:47;17.77;;;11.07;;
25153;SDS011;47555;51.038;6.280;2023-03-01T07:33:12;17.45;;;10.32;;
25153;SDS011;47555;51.038;6.280;2023-03-01T07:35:38;18.95;;;11.63;;
25153;SDS011;47555;51.038;6.280;2023-03-01T07:38:03;16.77;;;10.30;;
25153;SDS011;47555;51.038;6.280;2023-03-01T07:40:28;15.85;;;10.05;;
25153;SDS011;47555;51.038;6.280;2023-03-01T07:42:55;17.70;;;9.73;;
25153;SDS011;47555;51.038;6.280;2023-03-01T07:45:21;20.30;;;11.18;;
25153;SDS011;47555;51.038;6.280;2023-03-01T07:47:46;16.35;;;10.63;;
25153;SDS011;47555;51.038;6.280;2023-03-01T07:50:12;19.77;;;10.32;;
25153;SDS011;47555;51.038;6.280;2023-03-01T07:52:38;18.90;;;10.68;;
25153;SDS011;47555;51.038;6.280;2023-03-01T07:55:04;17.45;;;10.63;;
25153;SDS011;47555;51.038;6.280;2023-03-01T07:57:30;17.10;;;11.00;;
25153;SDS011;47555;51.038;6.280;2023-03-01T07:59:56;20.30;;;11.50;;
25153;SDS011;47555;51.038;6.280;2023-03-01T08:02:22;25.42;;;10.65;;
25153;SDS011;47555;51.038;6.280;2023-03-01T08:04:47;16.73;;;9.90;;
25153;SDS011;47555;51.038;6.280;2023-03-01T08:07:13;16.40;;;9.40;;
25153;SDS011;47555;51.038;6.280;2023-03-01T08:09:38;16.48;;;10.23;;
25153;SDS011;47555;51.038;6.280;2023-03-01T08:12:04;16.48;;;10.60;;
25153;SDS011;47555;51.038;6.280;2023-03-01T08:14:31;17.30;;;10.45;;
25153;SDS011;47555;51.038;6.280;2023-03-01T08:16:57;18.05;;;10.32;;
25153;SDS011;47555;51.038;6.280;2023-03-01T08:19:23;15.50;;;9.65;;
25153;SDS011;47555;51.038;6.280;2023-03-01T08:21:48;16.60;;;10.50;;
25153;SDS011;47555;51.038;6.280;2023-03-01T08:24:14;20.27;;;10.88;;
25153;SDS011;47555;51.038;6.280;2023-03-01T08:26:40;19.58;;;10.32;;
25153;SDS011;47555;51.038;6.280;2023-03-01T08:29:05;20.23;;;10.18;;
25153;SDS011;47555;51.038;6.280;2023-03-01T08:31:32;19.27;;;9.57;;
25153;SDS011;47555;51.038;6.280;2023-03-01T08:34:05;16.83;;;10.15;;
25153;SDS011;47555;51.038;6.280;2023-03-01T08:36:36;18.55;;;10.48;;
25153;SDS011;47555;51.038;6.280;2023-03-01T08:39:04;17.13;;;10.30;;
25153;SDS011;47555;51.038;6.280;2023-03-01T08:41:31;16.98;;;10.02;;
25153;SDS011;47555;51.038;6.280;2023-03-01T08:43:56;17.85;;;11.05;;
25153;SDS011;47555;51.038;6.280;2023-03-01T08:46:28;16.67;;;10.05;;
25153;SDS011;47555;51.038;6.280;2023-03-01T08:48:56;16.58;;;10.35;;
25153;SDS011;47555;51.038;6.280;2023-03-01T08:51:22;17.10;;;10.57;;
25153;SDS011;47555;51.038;6.280;2023-03-01T08:53:48;18.42;;;10.32;;
25153;SDS011;47555;51.038;6.280;2023-03-01T08:56:14;17.73;;;10.77;;
25153;SDS011;47555;51.038;6.280;2023-03-01T08:58:40;16.73;;;9.90;;
25153;SDS011;47555;51.038;6.280;2023-03-01T09:03:39;16.10;;;9.95;;
25153;SDS011;47555;51.038;6.280;2023-03-01T09:06:04;17.58;;;10.23;;
25153;SDS011;47555;51.038;6.280;2023-03-01T09:08:33;18.15;;;10.23;;
25153;SDS011;47555;51.038;6.280;2023-03-01T09:11:04;21.60;;;10.60;;
25153;SDS011;47555;51.038;6.280;2023-03-01T09:13:30;18.52;;;10.60;;
25153;SDS011;47555;51.038;6.280;2023-03-01T09:15:57;17.67;;;11.13;;
25153;SDS011;47555;51.038;6.280;2023-03-01T09:18:23;16.30;;;10.40;;
25153;SDS011;47555;51.038;6.280;2023-03-01T09:20:48;19.50;;;11.23;;
25153;SDS011;47555;51.038;6.280;2023-03-01T09:23:14;23.60;;;10.80;;
25153;SDS011;47555;51.038;6.280;2023-03-01T09:25:40;16.83;;;9.88;;
25153;SDS011;47555;51.038;6.280;2023-03-01T09:28:05;17.50;;;10.45;;
25153;SDS011;47555;51.038;6.280;2023-03-01T09:30:31;17.67;;;9.95;;
25153;SDS011;47555;51.038;6.280;2023-03-01T09:32:57;15.65;;;10.18;;
25153;SDS011;47555;51.038;6.280;2023-03-01T09:35:22;21.33;;;10.90;;
25153;SDS011;47555;51.038;6.280;2023-03-01T09:37:48;17.83;;;10.55;;
25153;SDS011;47555;51.038;6.280;2023-03-01T09:40:16;28.55;;;12.50;;
25153;SDS011;47555;51.038;6.280;2023-03-01T09:42:50;29.63;;;14.43;;
25153;SDS011;47555;51.038;6.280;2023-03-01T09:45:40;30.42;;;14.32;;
25153;SDS011;47555;51.038;6.280;2023-03-01T09:48:12;32.10;;;16.70;;
25153;SDS011;47555;51.038;6.280;2023-03-01T09:50:41;25.55;;;12.88;;
25153;SDS011;47555;51.038;6.280;2023-03-01T09:53:15;17.38;;;9.70;;
25153;SDS011;47555;51.038;6.280;2023-03-01T09:55:48;46.88;;;24.33;;
25153;SDS011;47555;51.038;6.280;2023-03-01T10:01:55;21.33;;;9.93;;
25153;SDS011;47555;51.038;6.280;2023-03-01T10:06:34;18.25;;;10.20;;
25153;SDS011;47555;51.038;6.280;2023-03-01T10:09:13;18.02;;;10.30;;
25153;SDS011;47555;51.038;6.280;2023-03-01T10:11:43;20.33;;;11.35;;
25153;SDS011;47555;51.038;6.280;2023-03-01T10:14:29;19.48;;;11.30;;
25153;SDS011;47555;51.038;6.280;2023-03-01T10:19:51;19.05;;;10.25;;
25153;SDS011;47555;51.038;6.280;2023-03-01T10:22:20;18.75;;;9.90;;
25153;SDS011;47555;51.038;6.280;2023-03-01T10:24:49;17.83;;;10.52;;
25153;SDS011;47555;51.038;6.280;2023-03-01T10:27:29;16.35;;;10.30;;
25153;SDS011;47555;51.038;6.280;2023-03-01T10:32:38;18.17;;;10.63;;
25153;SDS011;47555;51.038;6.280;2023-03-01T10:35:18;17.90;;;11.38;;
25153;SDS011;47555;51.038;6.280;2023-03-01T10:38:04;18.40;;;11.45;;
25153;SDS011;47555;51.038;6.280;2023-03-01T10:40:32;19.48;;;11.38;;
25153;SDS011;47555;51.038;6.280;2023-03-01T10:42:59;19.65;;;11.20;;
25153;SDS011;47555;51.038;6.280;2023-03-01T10:51:04;21.50;;;11.88;;
25153;SDS011;47555;51.038;6.280;2023-03-01T10:53:41;19.42;;;11.38;;
25153;SDS011;47555;51.038;6.280;2023-03-01T10:56:11;18.98;;;11.43;;
25153;SDS011;47555;51.038;6.280;2023-03-01T10:58:39;17.95;;;11.82;;
25153;SDS011;47555;51.038;6.280;2023-03-01T11:03:54;19.60;;;11.55;;
25153;SDS011;47555;51.038;6.280;2023-03-01T11:06:30;19.45;;;10.90;;
25153;SDS011;47555;51.038;6.280;2023-03-01T11:08:57;21.40;;;11.25;;
25153;SDS011;47555;51.038;6.280;2023-03-01T11:11:45;21.33;;;12.35;;
25153;SDS011;47555;51.038;6.280;2023-03-01T11:14:24;24.15;;;11.43;;
25153;SDS011;47555;51.038;6.280;2023-03-01T11:17:04;17.45;;;10.32;;
25153;SDS011;47555;51.038;6.280;2023-03-01T11:19:37;18.50;;;10.27;;
25153;SDS011;47555;51.038;6.280;2023-03-01T11:22:13;19.60;;;10.18;;
25153;SDS011;47555;51.038;6.280;2023-03-01T11:24:49;17.77;;;10.02;;
25153;SDS011;47555;51.038;6.280;2023-03-01T11:27:24;16.33;;;10.43;;
25153;SDS011;47555;51.038;6.280;2023-03-01T11:32:28;20.90;;;9.60;;
25153;SDS011;47555;51.038;6.280;2023-03-01T11:35:18;15.10;;;10.25;;
25153;SDS011;47555;51.038;6.280;2023-03-01T11:50:57;12.40;;;8.98;;
25153;SDS011;47555;51.038;6.280;2023-03-01T11:56:35;14.63;;;9.40;;
25153;SDS011;47555;51.038;6.280;2023-03-01T12:08:45;13.10;;;9.30;;
25153;SDS011;47555;51.038;6.280;2023-03-01T12:10:59;15.85;;;9.82;;
25153;SDS011;47555;51.038;6.280;2023-03-01T12:14:13;15.77;;;9.70;;
25153;SDS011;47555;51.038;6.280;2023-03-01T12:22:32;15.27;;;9.43;;
25153;SDS011;47555;51.038;6.280;2023-03-01T12:25:14;15.00;;;8.77;;
25153;SDS011;47555;51.038;6.280;2023-03-01T12:28:16;16.50;;;9.32;;
25153;SDS011;47555;51.038;6.280;2023-03-01T12:36:20;21.48;;;10.27;;
25153;SDS011;47555;51.038;6.280;2023-03-01T12:41:41;17.65;;;9.45;;
25153;SDS011;47555;51.038;6.280;2023-03-01T12:44:30;15.02;;;9.27;;
25153;SDS011;47555;51.038;6.280;2023-03-01T12:47:11;13.95;;;8.82;;
25153;SDS011;47555;51.038;6.280;2023-03-01T12:52:50;14.80;;;9.25;;
25153;SDS011;47555;51.038;6.280;2023-03-01T12:55:22;13.20;;;8.13;;
25153;SDS011;47555;51.038;6.280;2023-03-01T12:58:41;15.43;;;9.18;;
25153;SDS011;47555;51.038;6.280;2023-03-01T13:08:55;14.27;;;9.45;;
25153;SDS011;47555;51.038;6.280;2023-03-01T13:11:42;15.80;;;8.45;;
25153;SDS011;47555;51.038;6.280;2023-03-01T13:16:45;15.68;;;8.60;;
25153;SDS011;47555;51.038;6.280;2023-03-01T13:19:20;13.68;;;8.80;;
25153;SDS011;47555;51.038;6.280;2023-03-01T13:21:48;21.08;;;9.27;;
25153;SDS011;47555;51.038;6.280;2023-03-01T13:24:29;14.43;;;8.25;;
25153;SDS011;47555;51.038;6.280;2023-03-01T13:34:47;13.15;;;7.93;;
25153;SDS011;47555;51.038;6.280;2023-03-01T13:37:19;12.75;;;8.05;;
25153;SDS011;47555;51.038;6.280;2023-03-01T13:39:47;11.95;;;7.93;;
25153;SDS011;47555;51.038;6.280;2023-03-01T13:45:04;12.77;;;7.32;;
25153;SDS011;47555;51.038;6.280;2023-03-01T13:47:53;11.02;;;7.03;;
25153;SDS011;47555;51.038;6.280;2023-03-01T13:50:24;12.35;;;7.03;;
25153;SDS011;47555;51.038;6.280;2023-03-01T13:52:53;12.70;;;7.28;;
25153;SDS011;47555;51.038;6.280;2023-03-01T13:58:26;9.38;;;6.00;;
25153;SDS011;47555;51.038;6.280;2023-03-01T14:00:55;10.13;;;5.82;;
25153;SDS011;47555;51.038;6.280;2023-03-01T14:03:22;9.73;;;6.85;;
25153;SDS011;47555;51.038;6.280;2023-03-01T14:06:05;9.40;;;6.10;;
25153;SDS011;47555;51.038;6.280;2023-03-01T14:08:40;11.73;;;7.10;;
25153;SDS011;47555;51.038;6.280;2023-03-01T14:19:24;12.77;;;6.25;;
25153;SDS011;47555;51.038;6.280;2023-03-01T14:22:00;11.20;;;6.40;;
25153;SDS011;47555;51.038;6.280;2023-03-01T14:24:41;10.55;;;6.28;;
25153;SDS011;47555;51.038;6.280;2023-03-01T14:27:19;10.75;;;6.40;;
25153;SDS011;47555;51.038;6.280;2023-03-01T14:29:53;10.65;;;7.03;;
25153;SDS011;47555;51.038;6.280;2023-03-01T14:32:22;8.60;;;6.38;;
25153;SDS011;47555;51.038;6.280;2023-03-01T14:34:51;11.18;;;6.75;;
25153;SDS011;47555;51.038;6.280;2023-03-01T14:39:56;9.93;;;6.20;;
25153;SDS011;47555;51.038;6.280;2023-03-01T14:42:24;11.68;;;6.85;;
25153;SDS011;47555;51.038;6.280;2023-03-01T14:44:53;10.75;;;6.38;;
25153;SDS011;47555;51.038;6.280;2023-03-01T14:47:33;12.93;;;6.43;;
25153;SDS011;47555;51.038;6.280;2023-03-01T14:50:05;8.35;;;5.65;;
25153;SDS011;47555;51.038;6.280;2023-03-01T14:52:54;10.25;;;6.32;;
25153;SDS011;47555;51.038;6.280;2023-03-01T14:55:38;13.27;;;6.38;;
25153;SDS011;47555;51.038;6.280;2023-03-01T14:58:14;8.30;;;5.47;;
25153;SDS011;47555;51.038;6.280;2023-03-01T15:01:05;9.63;;;5.93;;
25153;SDS011;47555;51.038;6.280;2023-03-01T15:03:34;11.10;;;6.20;;
25153;SDS011;47555;51.038;6.280;2023-03-01T15:06:05;9.68;;;6.03;;
25153;SDS011;47555;51.038;6.280;2023-03-01T15:08:32;12.25;;;6.35;;
25153;SDS011;47555;51.038;6.280;2023-03-01T15:11:00;11.50;;;6.32;;
25153;SDS011;47555;51.038;6.280;2023-03-01T15:13:30;11.65;;;5.80;;
25153;SDS011;47555;51.038;6.280;2023-03-01T15:16:31;9.75;;;6.28;;
25153;SDS011;47555;51.038;6.280;2023-03-01T15:18:52;10.80;;;6.28;;
25153;SDS011;47555;51.038;6.280;2023-03-01T15:21:24;11.52;;;6.65;;
25153;SDS011;47555;51.038;6.280;2023-03-01T15:27:12;9.25;;;6.05;;
25153;SDS011;47555;51.038;6.280;2023-03-01T15:29:39;9.07;;;6.25;;
25153;SDS011;47555;51.038;6.280;2023-03-01T15:32:06;10.07;;;6.25;;
25153;SDS011;47555;51.038;6.280;2023-03-01T15:34:56;10.75;;;6.38;;
25153;SDS011;47555;51.038;6.280;2023-03-01T15:40:17;11.40;;;6.57;;
25153;SDS011;47555;51.038;6.280;2023-03-01T15:42:45;9.32;;;6.60;;
25153;SDS011;47555;51.038;6.280;2023-03-01T15:45:21;12.38;;;7.30;;
25153;SDS011;47555;51.038;6.280;2023-03-01T15:47:49;14.32;;;6.45;;
25153;SDS011;47555;51.038;6.280;2023-03-01T15:50:19;12.32;;;6.90;;
25153;SDS011;47555;51.038;6.280;2023-03-01T15:52:51;13.57;;;6.70;;
25153;SDS011;47555;51.038;6.280;2023-03-01T15:57:43;12.32;;;7.32;;
25153;SDS011;47555;51.038;6.280;2023-03-01T16:00:10;11.57;;;6.90;;
25153;SDS011;47555;51.038;6.280;2023-03-01T16:02:38;14.30;;;7.13;;
25153;SDS011;47555;51.038;6.280;2023-03-01T16:07:43;11.73;;;6.85;;
25153;SDS011;47555;51.038;6.280;2023-03-01T16:10:09;12.40;;;6.90;;
25153;SDS011;47555;51.038;6.280;2023-03-01T16:12:35;12.90;;;6.90;;
25153;SDS011;47555;51.038;6.280;2023-03-01T16:15:00;14.85;;;7.47;;
25153;SDS011;47555;51.038;6.280;2023-03-01T16:17:26;12.52;;;6.85;;
25153;SDS011;47555;51.038;6.280;2023-03-01T16:19:51;10.85;;;6.68;;
25153;SDS011;47555;51.038;6.280;2023-03-01T16:22:17;10.77;;;7.15;;
25153;SDS011;47555;51.038;6.280;2023-03-01T16:24:45;10.13;;;5.80;;
25153;SDS011;47555;51.038;6.280;2023-03-01T16:27:11;10.77;;;6.65;;
25153;SDS011;47555;51.038;6.280;2023-03-01T16:29:36;10.55;;;6.57;;
25153;SDS011;47555;51.038;6.280;2023-03-01T16:32:02;13.05;;;7.05;;
25153;SDS011;47555;51.038;6.280;2023-03-01T16:34:28;11.18;;;6.53;;
25153;SDS011;47555;51.038;6.280;2023-03-01T16:36:55;14.38;;;7.18;;
25153;SDS011;47555;51.038;6.280;2023-03-01T16:39:20;11.23;;;6.45;;
25153;SDS011;47555;51.038;6.280;2023-03-01T16:41:46;11.10;;;6.68;;
25153;SDS011;47555;51.038;6.280;2023-03-01T16:44:11;11.93;;;7.22;;
25153;SDS011;47555;51.038;6.280;2023-03-01T16:46:37;15.32;;;7.55;;
25153;SDS011;47555;51.038;6.280;2023-03-01T16:49:02;13.00;;;6.80;;
25153;SDS011;47555;51.038;6.280;2023-03-01T16:51:28;11.95;;;6.80;;